sensor_id;sensor_type;location;lat;lon;timestamp;P1;durP1;ratioP1;P2;durP2;ratioP2
55993;SDS011;67425;52.126;20.638;2023-02-08T00:00:56;33.55;;;14.15;;
55993;SDS011;67425;52.126;20.638;2023-02-08T00:03:21;34.95;;;12.55;;
55993;SDS011;67425;52.126;20.638;2023-02-08T00:05:47;24.77;;;11.35;;
55993;SDS011;67425;52.126;20.638;2023-02-08T00:08:13;34.60;;;11.75;;
55993;SDS011;67425;52.126;20.638;2023-02-08T00:10:38;27.90;;;12.23;;
55993;SDS011;67425;52.126;20.638;2023-02-08T00:13:03;34.55;;;12.55;;
55993;SDS011;67425;52.126;20.638;2023-02-08T00:15:29;27.20;;;11.65;;
55993;SDS011;67425;52.126;20.638;2023-02-08T00:17:54;27.23;;;10.90;;
55993;SDS011;67425;52.126;20.638;2023-02-08T00:20:20;28.42;;;11.32;;
55993;SDS011;67425;52.126;20.638;2023-02-08T00:22:45;31.08;;;10.57;;
55993;SDS011;67425;52.126;20.638;2023-02-08T00:25:10;26.80;;;11.30;;
55993;SDS011;67425;52.126;20.638;2023-02-08T00:27:36;28.25;;;11.82;;
55993;SDS011;67425;52.126;20.638;2023-02-08T00:30:02;32.55;;;11.63;;
55993;SDS011;67425;52.126;20.638;2023-02-08T00:32:28;26.45;;;10.45;;
55993;SDS011;67425;52.126;20.638;2023-02-08T00:34:53;25.15;;;10.50;;
55993;SDS011;67425;52.126;20.638;2023-02-08T00:37:19;32.75;;;12.18;;
55993;SDS011;67425;52.126;20.638;2023-02-08T00:39:44;28.58;;;11.55;;
55993;SDS011;67425;52.126;20.638;2023-02-08T00:42:09;27.42;;;10.93;;
55993;SDS011;67425;52.126;20.638;2023-02-08T00:44:35;30.52;;;11.38;;
55993;SDS011;67425;52.126;20.638;2023-02-08T00:47:00;30.30;;;11.50;;
55993;SDS011;67425;52.126;20.638;2023-02-08T00:49:26;27.48;;;11.82;;
55993;SDS011;67425;52.126;20.638;2023-02-08T00:51:51;37.78;;;11.75;;
55993;SDS011;67425;52.126;20.638;2023-02-08T00:54:17;20.75;;;10.18;;
55993;SDS011;67425;52.126;20.638;2023-02-08T00:56:43;21.25;;;11.43;;
55993;SDS011;67425;52.126;20.638;2023-02-08T00:59:09;28.67;;;11.43;;
55993;SDS011;67425;52.126;20.638;2023-02-08T01:01:35;27.08;;;9.55;;
55993;SDS011;67425;52.126;20.638;2023-02-08T01:04:01;30.65;;;9.88;;
55993;SDS011;67425;52.126;20.638;2023-02-08T01:06:26;25.63;;;10.20;;
55993;SDS011;67425;52.126;20.638;2023-02-08T01:08:52;38.78;;;12.18;;
55993;SDS011;67425;52.126;20.638;2023-02-08T01:11:18;30.95;;;11.60;;
55993;SDS011;67425;52.126;20.638;2023-02-08T01:13:47;25.05;;;10.32;;
55993;SDS011;67425;52.126;20.638;2023-02-08T01:16:20;29.08;;;8.68;;
55993;SDS011;67425;52.126;20.638;2023-02-08T01:18:48;27.08;;;9.40;;
55993;SDS011;67425;52.126;20.638;2023-02-08T01:21:18;27.10;;;10.98;;
55993;SDS011;67425;52.126;20.638;2023-02-08T01:23:46;24.17;;;8.57;;
55993;SDS011;67425;52.126;20.638;2023-02-08T01:26:12;24.00;;;10.43;;
55993;SDS011;67425;52.126;20.638;2023-02-08T01:28:38;24.50;;;9.55;;
55993;SDS011;67425;52.126;20.638;2023-02-08T01:31:05;18.08;;;9.77;;
55993;SDS011;67425;52.126;20.638;2023-02-08T01:33:32;24.52;;;9.63;;
55993;SDS011;67425;52.126;20.638;2023-02-08T01:35:57;24.98;;;10.60;;
55993;SDS011;67425;52.126;20.638;2023-02-08T01:38:22;30.85;;;10.65;;
55993;SDS011;67425;52.126;20.638;2023-02-08T01:40:48;26.70;;;10.13;;
55993;SDS011;67425;52.126;20.638;2023-02-08T01:45:50;18.65;;;9.25;;
55993;SDS011;67425;52.126;20.638;2023-02-08T01:48:35;19.45;;;8.43;;
55993;SDS011;67425;52.126;20.638;2023-02-08T01:51:05;19.92;;;9.10;;
55993;SDS011;67425;52.126;20.638;2023-02-08T01:53:34;19.50;;;8.82;;
55993;SDS011;67425;52.126;20.638;2023-02-08T01:56:01;19.83;;;9.23;;
55993;SDS011;67425;52.126;20.638;2023-02-08T01:58:31;15.70;;;8.88;;
55993;SDS011;67425;52.126;20.638;2023-02-08T02:01:00;25.00;;;10.27;;
55993;SDS011;67425;52.126;20.638;2023-02-08T02:03:27;22.05;;;9.90;;
55993;SDS011;67425;52.126;20.638;2023-02-08T02:06:06;24.08;;;9.88;;
55993;SDS011;67425;52.126;20.638;2023-02-08T02:08:34;22.50;;;9.10;;
55993;SDS011;67425;52.126;20.638;2023-02-08T02:11:00;24.98;;;10.52;;
55993;SDS011;67425;52.126;20.638;2023-02-08T02:13:26;29.08;;;9.43;;
55993;SDS011;67425;52.126;20.638;2023-02-08T02:15:52;18.75;;;9.27;;
55993;SDS011;67425;52.126;20.638;2023-02-08T02:18:30;30.38;;;10.27;;
55993;SDS011;67425;52.126;20.638;2023-02-08T02:29:55;20.95;;;9.13;;
55993;SDS011;67425;52.126;20.638;2023-02-08T02:37:48;30.38;;;12.75;;
55993;SDS011;67425;52.126;20.638;2023-02-08T02:40:40;31.95;;;13.73;;
55993;SDS011;67425;52.126;20.638;2023-02-08T02:54:19;22.35;;;9.77;;
55993;SDS011;67425;52.126;20.638;2023-02-08T02:56:52;22.75;;;10.70;;
55993;SDS011;67425;52.126;20.638;2023-02-08T02:59:23;37.25;;;10.30;;
55993;SDS011;67425;52.126;20.638;2023-02-08T03:01:52;22.17;;;10.15;;
55993;SDS011;67425;52.126;20.638;2023-02-08T03:07:13;33.38;;;11.23;;
55993;SDS011;67425;52.126;20.638;2023-02-08T03:18:26;28.08;;;9.27;;
55993;SDS011;67425;52.126;20.638;2023-02-08T03:23:40;23.92;;;8.90;;
55993;SDS011;67425;52.126;20.638;2023-02-08T03:31:31;22.88;;;10.02;;
55993;SDS011;67425;52.126;20.638;2023-02-08T03:37:03;22.58;;;9.90;;
55993;SDS011;67425;52.126;20.638;2023-02-08T03:39:34;27.05;;;9.15;;
55993;SDS011;67425;52.126;20.638;2023-02-08T03:42:04;21.27;;;9.98;;
55993;SDS011;67425;52.126;20.638;2023-02-08T03:44:38;29.48;;;11.02;;
55993;SDS011;67425;52.126;20.638;2023-02-08T03:47:08;19.02;;;8.65;;
55993;SDS011;67425;52.126;20.638;2023-02-08T03:49:39;27.25;;;10.48;;
55993;SDS011;67425;52.126;20.638;2023-02-08T03:52:08;18.38;;;8.52;;
55993;SDS011;67425;52.126;20.638;2023-02-08T03:54:35;19.42;;;8.32;;
55993;SDS011;67425;52.126;20.638;2023-02-08T03:57:07;30.95;;;9.70;;
55993;SDS011;67425;52.126;20.638;2023-02-08T03:59:40;18.60;;;9.05;;
55993;SDS011;67425;52.126;20.638;2023-02-08T04:02:08;23.05;;;9.02;;
55993;SDS011;67425;52.126;20.638;2023-02-08T04:04:44;18.83;;;8.43;;
55993;SDS011;67425;52.126;20.638;2023-02-08T04:07:12;21.40;;;9.50;;
55993;SDS011;67425;52.126;20.638;2023-02-08T04:09:37;20.15;;;9.48;;
55993;SDS011;67425;52.126;20.638;2023-02-08T04:12:03;24.33;;;9.30;;
55993;SDS011;67425;52.126;20.638;2023-02-08T04:14:29;22.60;;;10.60;;
55993;SDS011;67425;52.126;20.638;2023-02-08T04:16:55;24.92;;;10.15;;
55993;SDS011;67425;52.126;20.638;2023-02-08T04:19:20;24.40;;;10.90;;
55993;SDS011;67425;52.126;20.638;2023-02-08T04:21:45;26.23;;;10.25;;
55993;SDS011;67425;52.126;20.638;2023-02-08T04:24:11;22.27;;;9.45;;
55993;SDS011;67425;52.126;20.638;2023-02-08T04:26:36;19.08;;;9.40;;
55993;SDS011;67425;52.126;20.638;2023-02-08T04:29:01;26.10;;;10.10;;
55993;SDS011;67425;52.126;20.638;2023-02-08T04:31:27;20.65;;;9.68;;
55993;SDS011;67425;52.126;20.638;2023-02-08T04:33:52;31.02;;;9.75;;
55993;SDS011;67425;52.126;20.638;2023-02-08T04:36:18;26.08;;;9.68;;
55993;SDS011;67425;52.126;20.638;2023-02-08T04:38:43;20.10;;;9.93;;
55993;SDS011;67425;52.126;20.638;2023-02-08T04:41:09;24.63;;;11.63;;
55993;SDS011;67425;52.126;20.638;2023-02-08T04:43:34;24.95;;;10.88;;
55993;SDS011;67425;52.126;20.638;2023-02-08T04:46:00;18.73;;;9.05;;
55993;SDS011;67425;52.126;20.638;2023-02-08T04:48:26;24.52;;;10.25;;
55993;SDS011;67425;52.126;20.638;2023-02-08T04:50:53;30.70;;;10.27;;
55993;SDS011;67425;52.126;20.638;2023-02-08T04:53:19;24.58;;;10.95;;
55993;SDS011;67425;52.126;20.638;2023-02-08T04:55:45;28.10;;;10.10;;
55993;SDS011;67425;52.126;20.638;2023-02-08T04:58:11;27.20;;;10.63;;
55993;SDS011;67425;52.126;20.638;2023-02-08T05:00:36;25.02;;;11.50;;
55993;SDS011;67425;52.126;20.638;2023-02-08T05:03:02;24.35;;;10.60;;
55993;SDS011;67425;52.126;20.638;2023-02-08T05:05:28;30.52;;;11.30;;
55993;SDS011;67425;52.126;20.638;2023-02-08T05:07:54;27.13;;;11.05;;
55993;SDS011;67425;52.126;20.638;2023-02-08T05:10:20;26.23;;;11.57;;
55993;SDS011;67425;52.126;20.638;2023-02-08T05:12:45;32.17;;;10.48;;
55993;SDS011;67425;52.126;20.638;2023-02-08T05:15:11;25.20;;;11.45;;
55993;SDS011;67425;52.126;20.638;2023-02-08T05:17:36;22.00;;;9.93;;
55993;SDS011;67425;52.126;20.638;2023-02-08T05:20:03;27.75;;;12.10;;
55993;SDS011;67425;52.126;20.638;2023-02-08T05:22:30;27.05;;;10.07;;
55993;SDS011;67425;52.126;20.638;2023-02-08T05:24:56;26.42;;;11.18;;
55993;SDS011;67425;52.126;20.638;2023-02-08T05:27:21;29.60;;;12.00;;
55993;SDS011;67425;52.126;20.638;2023-02-08T05:29:47;23.95;;;12.50;;
55993;SDS011;67425;52.126;20.638;2023-02-08T05:32:12;27.35;;;10.93;;
55993;SDS011;67425;52.126;20.638;2023-02-08T05:34:37;30.23;;;11.75;;
55993;SDS011;67425;52.126;20.638;2023-02-08T05:37:03;26.45;;;11.45;;
55993;SDS011;67425;52.126;20.638;2023-02-08T05:39:28;25.50;;;10.82;;
55993;SDS011;67425;52.126;20.638;2023-02-08T05:41:54;33.78;;;11.90;;
55993;SDS011;67425;52.126;20.638;2023-02-08T05:44:19;29.05;;;12.35;;
55993;SDS011;67425;52.126;20.638;2023-02-08T05:46:44;21.70;;;10.48;;
55993;SDS011;67425;52.126;20.638;2023-02-08T05:49:10;29.38;;;12.38;;
55993;SDS011;67425;52.126;20.638;2023-02-08T05:51:35;20.60;;;10.55;;
55993;SDS011;67425;52.126;20.638;2023-02-08T05:54:00;27.60;;;12.15;;
55993;SDS011;67425;52.126;20.638;2023-02-08T05:56:26;28.40;;;11.75;;
55993;SDS011;67425;52.126;20.638;2023-02-08T05:58:52;27.10;;;12.95;;
55993;SDS011;67425;52.126;20.638;2023-02-08T06:01:18;30.50;;;13.50;;
55993;SDS011;67425;52.126;20.638;2023-02-08T06:03:43;32.45;;;13.00;;
55993;SDS011;67425;52.126;20.638;2023-02-08T06:06:08;31.08;;;12.25;;
55993;SDS011;67425;52.126;20.638;2023-02-08T06:08:37;25.85;;;13.02;;
55993;SDS011;67425;52.126;20.638;2023-02-08T06:11:03;30.48;;;13.07;;
55993;SDS011;67425;52.126;20.638;2023-02-08T06:13:29;24.13;;;11.68;;
55993;SDS011;67425;52.126;20.638;2023-02-08T06:15:55;25.20;;;11.80;;
55993;SDS011;67425;52.126;20.638;2023-02-08T06:18:20;33.63;;;12.93;;
55993;SDS011;67425;52.126;20.638;2023-02-08T06:20:46;32.63;;;12.52;;
55993;SDS011;67425;52.126;20.638;2023-02-08T06:23:11;39.50;;;13.95;;
55993;SDS011;67425;52.126;20.638;2023-02-08T06:25:37;36.40;;;13.60;;
55993;SDS011;67425;52.126;20.638;2023-02-08T06:28:03;25.90;;;12.65;;
55993;SDS011;67425;52.126;20.638;2023-02-08T06:30:29;28.40;;;11.77;;
55993;SDS011;67425;52.126;20.638;2023-02-08T06:32:55;33.05;;;13.27;;
55993;SDS011;67425;52.126;20.638;2023-02-08T06:35:20;36.80;;;13.25;;
55993;SDS011;67425;52.126;20.638;2023-02-08T06:37:46;31.98;;;14.00;;
55993;SDS011;67425;52.126;20.638;2023-02-08T06:40:11;31.75;;;13.90;;
55993;SDS011;67425;52.126;20.638;2023-02-08T06:42:36;34.35;;;15.00;;
55993;SDS011;67425;52.126;20.638;2023-02-08T06:45:02;36.88;;;14.43;;
55993;SDS011;67425;52.126;20.638;2023-02-08T06:47:28;34.92;;;15.13;;
55993;SDS011;67425;52.126;20.638;2023-02-08T06:49:54;39.30;;;16.25;;
55993;SDS011;67425;52.126;20.638;2023-02-08T06:52:19;48.00;;;17.83;;
55993;SDS011;67425;52.126;20.638;2023-02-08T06:54:45;54.97;;;20.05;;
55993;SDS011;67425;52.126;20.638;2023-02-08T06:57:11;60.78;;;21.45;;
55993;SDS011;67425;52.126;20.638;2023-02-08T06:59:37;59.67;;;23.15;;
55993;SDS011;67425;52.126;20.638;2023-02-08T07:02:07;68.03;;;23.17;;
55993;SDS011;67425;52.126;20.638;2023-02-08T07:04:38;57.55;;;20.92;;
55993;SDS011;67425;52.126;20.638;2023-02-08T07:07:04;40.75;;;17.38;;
55993;SDS011;67425;52.126;20.638;2023-02-08T07:09:29;45.85;;;15.52;;
55993;SDS011;67425;52.126;20.638;2023-02-08T07:11:57;42.00;;;16.20;;
55993;SDS011;67425;52.126;20.638;2023-02-08T07:14:22;47.70;;;16.35;;
55993;SDS011;67425;52.126;20.638;2023-02-08T07:16:48;35.35;;;15.93;;
55993;SDS011;67425;52.126;20.638;2023-02-08T07:19:13;41.72;;;16.77;;
55993;SDS011;67425;52.126;20.638;2023-02-08T07:21:38;34.90;;;15.85;;
55993;SDS011;67425;52.126;20.638;2023-02-08T07:24:04;37.70;;;15.85;;
55993;SDS011;67425;52.126;20.638;2023-02-08T07:26:29;34.60;;;14.88;;
55993;SDS011;67425;52.126;20.638;2023-02-08T07:28:55;38.67;;;16.58;;
55993;SDS011;67425;52.126;20.638;2023-02-08T07:31:21;38.08;;;16.38;;
55993;SDS011;67425;52.126;20.638;2023-02-08T07:33:47;38.78;;;15.88;;
55993;SDS011;67425;52.126;20.638;2023-02-08T07:36:12;34.15;;;15.63;;
55993;SDS011;67425;52.126;20.638;2023-02-08T07:38:38;33.45;;;14.43;;
55993;SDS011;67425;52.126;20.638;2023-02-08T07:41:04;35.70;;;14.13;;
55993;SDS011;67425;52.126;20.638;2023-02-08T07:43:36;28.80;;;14.57;;
55993;SDS011;67425;52.126;20.638;2023-02-08T07:46:09;31.92;;;15.10;;
55993;SDS011;67425;52.126;20.638;2023-02-08T07:48:35;35.38;;;15.32;;
55993;SDS011;67425;52.126;20.638;2023-02-08T07:51:00;38.22;;;15.57;;
55993;SDS011;67425;52.126;20.638;2023-02-08T07:53:26;38.00;;;16.23;;
55993;SDS011;67425;52.126;20.638;2023-02-08T07:55:52;38.90;;;17.60;;
55993;SDS011;67425;52.126;20.638;2023-02-08T07:58:17;38.88;;;15.43;;
55993;SDS011;67425;52.126;20.638;2023-02-08T08:00:42;43.13;;;16.73;;
55993;SDS011;67425;52.126;20.638;2023-02-08T08:03:08;34.17;;;15.80;;
55993;SDS011;67425;52.126;20.638;2023-02-08T08:05:34;44.88;;;16.75;;
55993;SDS011;67425;52.126;20.638;2023-02-08T08:08:00;42.92;;;16.92;;
55993;SDS011;67425;52.126;20.638;2023-02-08T08:10:25;36.15;;;16.75;;
55993;SDS011;67425;52.126;20.638;2023-02-08T08:12:51;43.70;;;18.33;;
55993;SDS011;67425;52.126;20.638;2023-02-08T08:15:16;50.00;;;18.23;;
55993;SDS011;67425;52.126;20.638;2023-02-08T08:17:42;43.65;;;19.02;;
55993;SDS011;67425;52.126;20.638;2023-02-08T08:20:08;44.47;;;18.67;;
55993;SDS011;67425;52.126;20.638;2023-02-08T08:22:34;52.63;;;20.90;;
55993;SDS011;67425;52.126;20.638;2023-02-08T08:25:00;54.67;;;22.95;;
55993;SDS011;67425;52.126;20.638;2023-02-08T08:27:25;52.33;;;22.52;;
55993;SDS011;67425;52.126;20.638;2023-02-08T08:29:50;52.60;;;23.42;;
55993;SDS011;67425;52.126;20.638;2023-02-08T08:32:16;51.10;;;24.75;;
55993;SDS011;67425;52.126;20.638;2023-02-08T08:34:41;57.92;;;23.40;;
55993;SDS011;67425;52.126;20.638;2023-02-08T08:37:06;52.65;;;23.38;;
55993;SDS011;67425;52.126;20.638;2023-02-08T08:39:33;54.15;;;25.45;;
55993;SDS011;67425;52.126;20.638;2023-02-08T08:41:59;67.32;;;26.60;;
55993;SDS011;67425;52.126;20.638;2023-02-08T08:44:24;56.03;;;23.38;;
55993;SDS011;67425;52.126;20.638;2023-02-08T08:46:53;51.08;;;25.42;;
55993;SDS011;67425;52.126;20.638;2023-02-08T08:49:20;56.60;;;24.52;;
55993;SDS011;67425;52.126;20.638;2023-02-08T08:51:45;61.97;;;25.58;;
55993;SDS011;67425;52.126;20.638;2023-02-08T08:54:11;62.25;;;24.95;;
55993;SDS011;67425;52.126;20.638;2023-02-08T08:56:36;67.95;;;24.65;;
55993;SDS011;67425;52.126;20.638;2023-02-08T08:59:01;63.17;;;25.02;;
55993;SDS011;67425;52.126;20.638;2023-02-08T09:01:27;58.88;;;23.88;;
55993;SDS011;67425;52.126;20.638;2023-02-08T09:03:52;53.50;;;24.05;;
55993;SDS011;67425;52.126;20.638;2023-02-08T09:06:17;58.40;;;24.77;;
55993;SDS011;67425;52.126;20.638;2023-02-08T09:08:43;48.03;;;22.98;;
55993;SDS011;67425;52.126;20.638;2023-02-08T09:11:10;51.40;;;21.55;;
55993;SDS011;67425;52.126;20.638;2023-02-08T09:13:37;52.83;;;22.35;;
55993;SDS011;67425;52.126;20.638;2023-02-08T09:16:06;53.38;;;22.02;;
55993;SDS011;67425;52.126;20.638;2023-02-08T09:18:34;46.63;;;21.02;;
55993;SDS011;67425;52.126;20.638;2023-02-08T09:21:06;53.53;;;22.00;;
55993;SDS011;67425;52.126;20.638;2023-02-08T09:23:33;41.30;;;20.48;;
55993;SDS011;67425;52.126;20.638;2023-02-08T09:26:06;47.42;;;21.42;;
55993;SDS011;67425;52.126;20.638;2023-02-08T09:28:34;54.03;;;21.63;;
55993;SDS011;67425;52.126;20.638;2023-02-08T09:31:06;59.15;;;23.20;;
55993;SDS011;67425;52.126;20.638;2023-02-08T09:33:32;46.40;;;21.75;;
55993;SDS011;67425;52.126;20.638;2023-02-08T09:35:57;56.80;;;22.85;;
55993;SDS011;67425;52.126;20.638;2023-02-08T09:38:23;59.17;;;23.05;;
55993;SDS011;67425;52.126;20.638;2023-02-08T09:40:50;59.08;;;23.92;;
55993;SDS011;67425;52.126;20.638;2023-02-08T09:46:24;53.10;;;21.70;;
55993;SDS011;67425;52.126;20.638;2023-02-08T09:48:54;45.10;;;20.33;;
55993;SDS011;67425;52.126;20.638;2023-02-08T09:51:29;56.88;;;21.23;;
55993;SDS011;67425;52.126;20.638;2023-02-08T09:56:41;50.30;;;20.15;;
55993;SDS011;67425;52.126;20.638;2023-02-08T09:59:12;45.65;;;18.88;;
55993;SDS011;67425;52.126;20.638;2023-02-08T10:01:40;51.40;;;21.15;;
55993;SDS011;67425;52.126;20.638;2023-02-08T10:07:08;55.10;;;21.27;;
55993;SDS011;67425;52.126;20.638;2023-02-08T10:09:35;50.83;;;20.35;;
55993;SDS011;67425;52.126;20.638;2023-02-08T10:20:51;43.47;;;17.73;;
55993;SDS011;67425;52.126;20.638;2023-02-08T10:34:33;40.72;;;14.20;;
55993;SDS011;67425;52.126;20.638;2023-02-08T10:37:18;30.95;;;14.20;;
55993;SDS011;67425;52.126;20.638;2023-02-08T10:39:45;38.35;;;15.25;;
55993;SDS011;67425;52.126;20.638;2023-02-08T10:42:21;39.72;;;15.82;;
55993;SDS011;67425;52.126;20.638;2023-02-08T10:47:46;35.33;;;15.65;;
55993;SDS011;67425;52.126;20.638;2023-02-08T10:52:50;30.10;;;12.93;;
55993;SDS011;67425;52.126;20.638;2023-02-08T10:55:16;29.17;;;12.10;;
55993;SDS011;67425;52.126;20.638;2023-02-08T10:57:44;27.13;;;12.52;;
55993;SDS011;67425;52.126;20.638;2023-02-08T11:02:51;17.30;;;7.82;;
55993;SDS011;67425;52.126;20.638;2023-02-08T11:08:12;6.45;;;4.28;;
55993;SDS011;67425;52.126;20.638;2023-02-08T11:10:55;4.68;;;3.13;;
55993;SDS011;67425;52.126;20.638;2023-02-08T11:13:39;9.52;;;3.95;;
55993;SDS011;67425;52.126;20.638;2023-02-08T11:16:10;16.77;;;5.43;;
55993;SDS011;67425;52.126;20.638;2023-02-08T11:18:47;12.73;;;5.95;;
55993;SDS011;67425;52.126;20.638;2023-02-08T11:21:28;13.05;;;5.75;;
55993;SDS011;67425;52.126;20.638;2023-02-08T11:23:57;16.00;;;4.72;;
55993;SDS011;67425;52.126;20.638;2023-02-08T11:26:44;7.28;;;3.50;;
55993;SDS011;67425;52.126;20.638;2023-02-08T11:34:26;8.90;;;4.15;;
55993;SDS011;67425;52.126;20.638;2023-02-08T11:36:53;10.40;;;4.40;;
55993;SDS011;67425;52.126;20.638;2023-02-08T11:41:56;6.18;;;3.63;;
55993;SDS011;67425;52.126;20.638;2023-02-08T11:44:29;3.90;;;2.95;;
55993;SDS011;67425;52.126;20.638;2023-02-08T11:47:01;4.32;;;3.00;;
55993;SDS011;67425;52.126;20.638;2023-02-08T11:49:39;3.15;;;2.83;;
55993;SDS011;67425;52.126;20.638;2023-02-08T11:52:20;3.83;;;2.92;;
55993;SDS011;67425;52.126;20.638;2023-02-08T11:54:49;6.93;;;4.05;;
55993;SDS011;67425;52.126;20.638;2023-02-08T11:57:17;5.88;;;3.53;;
55993;SDS011;67425;52.126;20.638;2023-02-08T11:59:45;6.13;;;2.75;;
55993;SDS011;67425;52.126;20.638;2023-02-08T12:05:00;3.50;;;2.85;;
55993;SDS011;67425;52.126;20.638;2023-02-08T12:13:23;2.40;;;1.73;;
55993;SDS011;67425;52.126;20.638;2023-02-08T12:16:07;46.53;;;17.10;;
55993;SDS011;67425;52.126;20.638;2023-02-08T12:21:30;8.15;;;4.50;;
55993;SDS011;67425;52.126;20.638;2023-02-08T12:26:41;4.70;;;2.00;;
55993;SDS011;67425;52.126;20.638;2023-02-08T12:38:01;5.75;;;3.28;;
55993;SDS011;67425;52.126;20.638;2023-02-08T12:43:41;4.38;;;2.63;;
55993;SDS011;67425;52.126;20.638;2023-02-08T12:54:25;3.08;;;2.08;;
55993;SDS011;67425;52.126;20.638;2023-02-08T12:56:57;8.10;;;3.58;;
55993;SDS011;67425;52.126;20.638;2023-02-08T12:59:27;6.45;;;2.70;;
55993;SDS011;67425;52.126;20.638;2023-02-08T13:02:01;7.35;;;2.97;;
55993;SDS011;67425;52.126;20.638;2023-02-08T13:04:38;5.28;;;2.88;;
55993;SDS011;67425;52.126;20.638;2023-02-08T13:07:18;4.38;;;2.72;;
55993;SDS011;67425;52.126;20.638;2023-02-08T13:12:27;4.13;;;3.08;;
55993;SDS011;67425;52.126;20.638;2023-02-08T13:15:05;6.80;;;3.38;;
55993;SDS011;67425;52.126;20.638;2023-02-08T13:17:54;6.25;;;3.53;;
55993;SDS011;67425;52.126;20.638;2023-02-08T13:20:42;4.57;;;3.22;;
55993;SDS011;67425;52.126;20.638;2023-02-08T13:23:33;4.85;;;3.33;;
55993;SDS011;67425;52.126;20.638;2023-02-08T13:26:05;10.30;;;3.40;;
55993;SDS011;67425;52.126;20.638;2023-02-08T13:28:35;9.85;;;3.88;;
55993;SDS011;67425;52.126;20.638;2023-02-08T13:31:10;5.00;;;3.83;;
55993;SDS011;67425;52.126;20.638;2023-02-08T13:33:48;6.22;;;3.60;;
55993;SDS011;67425;52.126;20.638;2023-02-08T13:36:29;7.93;;;4.00;;
55993;SDS011;67425;52.126;20.638;2023-02-08T13:38:58;4.70;;;3.53;;
55993;SDS011;67425;52.126;20.638;2023-02-08T13:41:25;8.40;;;3.97;;
55993;SDS011;67425;52.126;20.638;2023-02-08T13:46:44;7.75;;;3.92;;
55993;SDS011;67425;52.126;20.638;2023-02-08T14:03:21;4.65;;;4.07;;
55993;SDS011;67425;52.126;20.638;2023-02-08T14:16:35;12.10;;;5.07;;
55993;SDS011;67425;52.126;20.638;2023-02-08T14:21:42;8.35;;;4.82;;
55993;SDS011;67425;52.126;20.638;2023-02-08T14:26:47;9.85;;;5.90;;
55993;SDS011;67425;52.126;20.638;2023-02-08T14:29:23;10.02;;;5.15;;
55993;SDS011;67425;52.126;20.638;2023-02-08T14:31:54;10.30;;;6.20;;
55993;SDS011;67425;52.126;20.638;2023-02-08T14:34:41;13.88;;;6.28;;
55993;SDS011;67425;52.126;20.638;2023-02-08T14:39:42;9.82;;;5.97;;
55993;SDS011;67425;52.126;20.638;2023-02-08T14:42:11;15.07;;;6.35;;
55993;SDS011;67425;52.126;20.638;2023-02-08T14:49:28;14.70;;;6.45;;
55993;SDS011;67425;52.126;20.638;2023-02-08T14:52:04;10.88;;;6.20;;
55993;SDS011;67425;52.126;20.638;2023-02-08T14:57:27;17.85;;;7.10;;
55993;SDS011;67425;52.126;20.638;2023-02-08T14:59:58;16.55;;;6.32;;
55993;SDS011;67425;52.126;20.638;2023-02-08T15:02:25;14.77;;;7.20;;
55993;SDS011;67425;52.126;20.638;2023-02-08T15:04:58;13.43;;;7.35;;
55993;SDS011;67425;52.126;20.638;2023-02-08T15:07:28;12.25;;;6.88;;
55993;SDS011;67425;52.126;20.638;2023-02-08T15:10:04;20.73;;;7.47;;
55993;SDS011;67425;52.126;20.638;2023-02-08T15:12:36;18.02;;;6.45;;
55993;SDS011;67425;52.126;20.638;2023-02-08T15:15:04;22.15;;;8.30;;
55993;SDS011;67425;52.126;20.638;2023-02-08T15:17:32;15.50;;;6.97;;
55993;SDS011;67425;52.126;20.638;2023-02-08T15:20:01;19.63;;;6.93;;
55993;SDS011;67425;52.126;20.638;2023-02-08T15:24:57;14.02;;;6.55;;
55993;SDS011;67425;52.126;20.638;2023-02-08T15:27:26;15.73;;;8.70;;
55993;SDS011;67425;52.126;20.638;2023-02-08T15:29:56;16.33;;;7.90;;
55993;SDS011;67425;52.126;20.638;2023-02-08T15:32:23;18.52;;;8.43;;
55993;SDS011;67425;52.126;20.638;2023-02-08T15:34:54;19.77;;;8.82;;
55993;SDS011;67425;52.126;20.638;2023-02-08T15:37:22;13.43;;;7.53;;
55993;SDS011;67425;52.126;20.638;2023-02-08T15:39:52;17.52;;;8.57;;
55993;SDS011;67425;52.126;20.638;2023-02-08T15:42:24;20.63;;;9.32;;
55993;SDS011;67425;52.126;20.638;2023-02-08T15:44:56;18.25;;;8.95;;
55993;SDS011;67425;52.126;20.638;2023-02-08T15:47:27;19.67;;;8.40;;
55993;SDS011;67425;52.126;20.638;2023-02-08T15:49:56;26.45;;;9.00;;
55993;SDS011;67425;52.126;20.638;2023-02-08T15:52:29;20.92;;;10.18;;
55993;SDS011;67425;52.126;20.638;2023-02-08T15:54:57;21.05;;;9.75;;
55993;SDS011;67425;52.126;20.638;2023-02-08T15:59:57;20.00;;;9.65;;
55993;SDS011;67425;52.126;20.638;2023-02-08T16:02:29;21.45;;;10.20;;
55993;SDS011;67425;52.126;20.638;2023-02-08T16:04:57;21.48;;;10.48;;
55993;SDS011;67425;52.126;20.638;2023-02-08T16:07:26;29.35;;;10.82;;
55993;SDS011;67425;52.126;20.638;2023-02-08T16:10:07;19.17;;;9.57;;
55993;SDS011;67425;52.126;20.638;2023-02-08T16:12:47;26.77;;;11.25;;
55993;SDS011;67425;52.126;20.638;2023-02-08T16:18:01;42.13;;;13.13;;
55993;SDS011;67425;52.126;20.638;2023-02-08T16:20:29;31.15;;;13.23;;
55993;SDS011;67425;52.126;20.638;2023-02-08T16:22:57;43.33;;;14.38;;
55993;SDS011;67425;52.126;20.638;2023-02-08T16:27:53;34.50;;;15.60;;
55993;SDS011;67425;52.126;20.638;2023-02-08T16:30:19;36.20;;;15.65;;
55993;SDS011;67425;52.126;20.638;2023-02-08T16:32:46;37.72;;;15.00;;
55993;SDS011;67425;52.126;20.638;2023-02-08T16:35:12;48.78;;;18.25;;
55993;SDS011;67425;52.126;20.638;2023-02-08T16:37:39;50.35;;;19.83;;
55993;SDS011;67425;52.126;20.638;2023-02-08T16:40:08;45.38;;;19.05;;
55993;SDS011;67425;52.126;20.638;2023-02-08T16:43:14;36.92;;;17.13;;
55993;SDS011;67425;52.126;20.638;2023-02-08T16:46:11;54.33;;;21.65;;
55993;SDS011;67425;52.126;20.638;2023-02-08T16:48:35;46.53;;;18.75;;
55993;SDS011;67425;52.126;20.638;2023-02-08T16:51:03;53.13;;;20.17;;
55993;SDS011;67425;52.126;20.638;2023-02-08T16:53:31;51.78;;;20.90;;
55993;SDS011;67425;52.126;20.638;2023-02-08T16:55:57;55.83;;;21.00;;
55993;SDS011;67425;52.126;20.638;2023-02-08T16:58:24;56.47;;;20.98;;
55993;SDS011;67425;52.126;20.638;2023-02-08T17:00:49;53.70;;;20.80;;
55993;SDS011;67425;52.126;20.638;2023-02-08T17:03:15;48.95;;;20.67;;
55993;SDS011;67425;52.126;20.638;2023-02-08T17:05:41;47.92;;;18.85;;
55993;SDS011;67425;52.126;20.638;2023-02-08T17:08:09;55.83;;;19.85;;
55993;SDS011;67425;52.126;20.638;2023-02-08T17:10:38;61.83;;;23.35;;
55993;SDS011;67425;52.126;20.638;2023-02-08T17:13:04;68.22;;;22.15;;
55993;SDS011;67425;52.126;20.638;2023-02-08T17:15:29;67.90;;;29.50;;
55993;SDS011;67425;52.126;20.638;2023-02-08T17:17:55;74.00;;;28.63;;
55993;SDS011;67425;52.126;20.638;2023-02-08T17:22:46;76.20;;;29.02;;
55993;SDS011;67425;52.126;20.638;2023-02-08T17:25:13;74.30;;;28.38;;
55993;SDS011;67425;52.126;20.638;2023-02-08T17:27:43;71.28;;;26.67;;
55993;SDS011;67425;52.126;20.638;2023-02-08T17:30:17;72.25;;;28.25;;
55993;SDS011;67425;52.126;20.638;2023-02-08T17:32:45;71.45;;;27.40;;
55993;SDS011;67425;52.126;20.638;2023-02-08T17:35:12;78.80;;;28.25;;